createdAt,value
2022-09-02T00:00:10.432Z,13.9
2022-09-02T00:02:16.959Z,13.9
2022-09-02T00:08:38.827Z,13.8
2022-09-02T00:11:49.883Z,14
2022-09-02T00:13:56.277Z,14
2022-09-02T00:16:02.737Z,14
2022-09-02T00:18:10.255Z,14
2022-09-02T00:24:31.157Z,13.7
2022-09-02T00:26:37.548Z,13.6
2022-09-02T00:28:44.318Z,13.5
2022-09-02T00:30:50.357Z,13.3
2022-09-02T00:32:56.770Z,13.3
2022-09-02T00:35:06.063Z,13.2
2022-09-02T00:39:18.882Z,13.1
2022-09-02T00:43:31.692Z,12.9
2022-09-02T00:47:44.528Z,12.8
2022-09-02T00:52:00.182Z,12.8
2022-09-02T00:54:06.569Z,12.8
2022-09-02T00:56:12.944Z,12.7
2022-09-02T00:58:19.379Z,12.8
2022-09-02T01:00:25.768Z,12.8
2022-09-02T01:02:32.197Z,12.7
2022-09-02T01:04:41.391Z,12.6
2022-09-02T01:06:47.837Z,12.7
2022-09-02T01:08:54.204Z,12.6
2022-09-02T01:11:20.206Z,12.6
2022-09-02T01:15:33.012Z,12.6
2022-09-02T01:17:42.246Z,12.5
2022-09-02T01:19:48.667Z,12.5
2022-09-02T01:21:55.068Z,12.6
2022-09-02T01:24:01.466Z,12.6
2022-09-02T01:30:20.635Z,12.5
2022-09-02T01:32:29.885Z,12.5
2022-09-02T01:36:42.666Z,12.4
2022-09-02T01:38:49.065Z,12.5
2022-09-02T01:49:23.904Z,12.5
2022-09-02T01:51:30.326Z,12.4
2022-09-02T01:53:36.741Z,12.4
2022-09-02T01:55:43.130Z,12.4
2022-09-02T01:57:49.506Z,12.4
2022-09-02T01:59:55.913Z,12.4
2022-09-02T02:02:05.269Z,12.4
2022-09-02T02:04:13.570Z,12.4
2022-09-02T02:06:17.984Z,12.4
2022-09-02T02:07:22.617Z,12.4
2022-09-02T02:09:28.984Z,12.4
2022-09-02T02:13:41.744Z,12.3
2022-09-02T02:17:57.401Z,12.3
2022-09-02T02:20:03.810Z,12.3
2022-09-02T02:28:29.404Z,12.3
2022-09-02T02:30:38.616Z,12.3
2022-09-02T02:32:45.035Z,12.3
2022-09-02T02:34:51.459Z,12.3
2022-09-02T02:36:57.813Z,12.3
2022-09-02T02:39:04.234Z,12.3
2022-09-02T02:43:17.017Z,12.4
2022-09-02T02:45:26.289Z,12.4
2022-09-02T02:51:45.500Z,12.4
2022-09-02T02:55:58.260Z,12.5
2022-09-02T02:58:04.691Z,12.5
2022-09-02T03:00:13.911Z,12.6
2022-09-02T03:04:26.737Z,12.6
2022-09-02T03:07:37.741Z,12.6
2022-09-02T03:09:44.174Z,12.6
2022-09-02T03:11:50.562Z,12.6
2022-09-02T03:13:59.824Z,12.6
2022-09-02T03:16:06.362Z,12.6
2022-09-02T03:18:12.622Z,12.6
2022-09-02T03:33:03.805Z,12.9
2022-09-02T03:35:06.648Z,13
2022-09-02T03:37:13.089Z,13
2022-09-02T03:39:19.444Z,13
2022-09-02T03:41:25.874Z,13.1
2022-09-02T03:43:35.132Z,13.1
2022-09-02T03:45:41.844Z,13.2
2022-09-02T03:47:47.960Z,13.2
2022-09-02T03:54:07.134Z,13.5
2022-09-02T03:56:13.520Z,13.6
2022-09-02T03:58:22.763Z,13.6
2022-09-02T04:00:29.192Z,13.7
2022-09-02T04:02:35.677Z,13.6
2022-09-02T04:03:40.200Z,13.7
2022-09-02T04:05:46.568Z,13.7
2022-09-02T04:09:59.391Z,13.8
2022-09-02T04:14:15.024Z,13.9
2022-09-02T04:16:21.506Z,13.9
2022-09-02T04:18:27.840Z,13.9
2022-09-02T04:24:47.006Z,14
2022-09-02T04:26:58.551Z,14.1
2022-09-02T04:29:02.669Z,14.1
2022-09-02T04:31:09.099Z,14
2022-09-02T04:35:21.889Z,14
2022-09-02T04:37:28.285Z,14.1
2022-09-02T04:39:34.680Z,14.2
2022-09-02T04:41:43.963Z,14.2
2022-09-02T04:43:50.322Z,14.1
2022-09-02T04:45:56.789Z,14.2
2022-09-02T04:48:03.145Z,14.2
2022-09-02T04:50:09.540Z,14.2
2022-09-02T04:52:15.941Z,14.3
2022-09-02T04:54:22.376Z,14.4
2022-09-02T04:56:31.591Z,14.4
2022-09-02T04:58:38.010Z,14.4
2022-09-02T05:00:44.379Z,14.5
2022-09-02T05:03:04.697Z,14.5
2022-09-02T05:05:11.100Z,14.5
2022-09-02T05:07:17.509Z,14.5
2022-09-02T05:09:26.764Z,14.6
2022-09-02T05:11:33.159Z,14.6
2022-09-02T05:13:39.557Z,14.6
2022-09-02T05:15:46.018Z,14.6
2022-09-02T05:17:53.940Z,14.6
2022-09-02T05:20:00.272Z,14.7
2022-09-02T05:26:22.357Z,14.8
2022-09-02T05:30:35.158Z,14.9
2022-09-02T05:32:41.525Z,14.9
2022-09-02T05:34:47.941Z,15
2022-09-02T05:36:54.353Z,15
2022-09-02T05:39:03.563Z,15
2022-09-02T05:41:09.952Z,15
2022-09-02T05:43:16.258Z,15.1
2022-09-02T05:49:35.535Z,15.2
2022-09-02T05:55:57.588Z,15.3
2022-09-02T05:58:04.004Z,15.3
2022-09-02T05:59:08.696Z,15.3
2022-09-02T06:01:15.039Z,15.3
2022-09-02T06:03:21.566Z,15.4
2022-09-02T06:05:27.837Z,15.4
2022-09-02T06:07:36.994Z,15.4
2022-09-02T06:09:43.423Z,15.4
2022-09-02T06:11:49.807Z,15.5
2022-09-02T06:13:56.200Z,15.6
2022-09-02T06:16:02.698Z,15.7
2022-09-02T06:18:08.911Z,15.7
2022-09-02T06:20:15.304Z,15.8
2022-09-02T06:22:24.489Z,16
2022-09-02T06:24:30.810Z,16
2022-09-02T06:26:37.210Z,16.1
2022-09-02T06:28:43.603Z,16.1
2022-09-02T06:30:49.979Z,16.2
2022-09-02T06:35:02.730Z,16.3
2022-09-02T06:39:18.166Z,16.3
2022-09-02T06:41:24.466Z,16.4
2022-09-02T06:45:37.159Z,16.5
2022-09-02T06:47:43.474Z,16.5
2022-09-02T06:51:58.907Z,16.5
2022-09-02T06:54:05.188Z,16.5
2022-09-02T06:56:11.530Z,16.6
2022-09-02T06:57:16.146Z,16.6
2022-09-02T06:59:22.525Z,16.6
2022-09-02T07:03:35.130Z,16.9
2022-09-02T07:05:44.347Z,16.9
2022-09-02T07:07:50.658Z,16.9
2022-09-02T07:09:56.938Z,16.9
2022-09-02T07:12:04.994Z,16.9
2022-09-02T07:14:09.494Z,17
2022-09-02T07:16:15.776Z,17.1
2022-09-02T07:24:43.673Z,17.9
2022-09-02T07:28:56.270Z,17.9
2022-09-02T07:31:02.626Z,17.9
2022-09-02T07:33:08.858Z,18
2022-09-02T07:35:17.869Z,18.1
2022-09-02T07:37:24.276Z,18.1
2022-09-02T07:43:42.994Z,18.3
2022-09-02T07:50:21.264Z,19.4
2022-09-02T07:54:17.121Z,19
2022-09-02T07:55:21.640Z,18.9
2022-09-02T07:57:27.939Z,18.8
2022-09-02T07:59:34.178Z,18.8
2022-09-02T08:03:49.433Z,19.8
2022-09-02T08:05:55.703Z,20
2022-09-02T08:08:01.966Z,19.5
2022-09-02T08:12:16.757Z,19.9
2022-09-02T08:14:20.735Z,19.3
2022-09-02T08:16:27.091Z,18.8
2022-09-02T08:18:35.996Z,18.7
2022-09-02T08:20:42.259Z,18.6
2022-09-02T08:22:54.642Z,19.2
2022-09-02T08:24:54.751Z,19.5
2022-09-02T08:27:01.017Z,19.2
2022-09-02T08:29:07.264Z,18.9
2022-09-02T08:31:13.508Z,18.8
2022-09-02T08:33:22.653Z,18.7
2022-09-02T08:41:47.526Z,19.1
2022-09-02T08:43:53.764Z,19.3
2022-09-02T08:48:09.058Z,21.5
2022-09-02T08:50:15.289Z,21.6
2022-09-02T08:52:21.536Z,21.5
2022-09-02T08:54:47.426Z,22.2
2022-09-02T08:56:53.736Z,22.4
2022-09-02T08:58:59.797Z,22.5
2022-09-02T09:01:08.846Z,22.3
2022-09-02T09:03:15.069Z,22.6
2022-09-02T09:05:21.226Z,22.9
2022-09-02T09:07:27.568Z,22.9
2022-09-02T09:09:33.706Z,23.1
2022-09-02T09:11:39.919Z,22.8
2022-09-02T09:13:46.138Z,22.3
2022-09-02T09:15:55.112Z,22.9
2022-09-02T09:18:01.321Z,23
2022-09-02T09:20:07.498Z,23.1
2022-09-02T09:22:13.691Z,23.4
2022-09-02T09:24:19.904Z,23.7
2022-09-02T09:26:26.119Z,24.7
2022-09-02T09:28:32.309Z,25
2022-09-02T09:30:41.258Z,25.8
2022-09-02T09:32:47.457Z,26.1
2022-09-02T09:34:57.953Z,26.2
2022-09-02T09:37:00.103Z,26.3
2022-09-02T09:39:05.903Z,25.9
2022-09-02T09:41:12.050Z,25.3
2022-09-02T09:43:18.185Z,25.7
2022-09-02T09:45:27.135Z,25.3
2022-09-02T09:47:33.209Z,25.3
2022-09-02T09:49:39.292Z,25.4
2022-09-02T09:52:49.814Z,26.3
2022-09-02T09:54:55.920Z,26.8
2022-09-02T09:59:10.769Z,27
2022-09-02T10:01:16.825Z,27.1
2022-09-02T10:03:22.733Z,26.3
2022-09-02T10:05:28.633Z,26.1
2022-09-02T10:07:34.577Z,26.8
2022-09-02T10:09:40.490Z,27
2022-09-02T10:11:46.416Z,26.9
2022-09-02T10:13:55.019Z,26.8
2022-09-02T10:16:00.952Z,26.6
2022-09-02T10:18:06.797Z,26.6
2022-09-02T10:20:12.698Z,26.9
2022-09-02T10:22:18.603Z,27.6
2022-09-02T10:24:24.430Z,27.7
2022-09-02T10:26:30.307Z,27.5
2022-09-02T10:28:38.867Z,27
2022-09-02T10:30:44.738Z,26.9
2022-09-02T10:32:50.564Z,26.8
2022-09-02T10:34:56.419Z,27.4
2022-09-02T10:37:02.239Z,27.4
2022-09-02T10:39:08.056Z,27.4
2022-09-02T10:41:13.864Z,27.4
2022-09-02T10:43:22.582Z,27.2
2022-09-02T10:45:28.243Z,27.4
2022-09-02T10:47:34.039Z,27.5
2022-09-02T10:48:38.307Z,27.4
2022-09-02T10:52:49.892Z,27.6
2022-09-02T10:57:04.193Z,27.5
2022-09-02T10:59:09.978Z,27.5
2022-09-02T11:01:15.812Z,27.1
2022-09-02T11:03:21.685Z,26.6
2022-09-02T11:05:27.291Z,26.7
2022-09-02T11:07:33.052Z,26.8
2022-09-02T11:09:38.826Z,26.8
2022-09-02T11:11:47.339Z,26.8
2022-09-02T11:13:53.075Z,26.7
2022-09-02T11:15:58.902Z,27
2022-09-02T11:18:04.666Z,26.9
2022-09-02T11:22:16.178Z,26.3
2022-09-02T11:26:31.930Z,27.5
2022-09-02T11:28:37.693Z,27.8
2022-09-02T11:30:43.535Z,28.1
2022-09-02T11:32:49.226Z,27.8
2022-09-02T11:37:00.765Z,28.2
2022-09-02T11:39:06.523Z,28
2022-09-02T11:43:21.973Z,27.5
2022-09-02T11:45:26.600Z,27.5
2022-09-02T11:46:30.799Z,27.6
2022-09-02T11:48:36.436Z,27.8
2022-09-02T11:50:42.174Z,28
2022-09-02T11:52:47.916Z,27.9
2022-09-02T11:54:59.467Z,27.7
2022-09-02T11:59:07.860Z,26.9
2022-09-02T12:01:13.710Z,27.2
2022-09-02T12:03:40.953Z,27.3
2022-09-02T12:09:39.397Z,27.6
2022-09-02T12:11:45.111Z,27.6
2022-09-02T12:15:56.773Z,26.4
2022-09-02T12:18:02.486Z,26.5
2022-09-02T12:20:08.315Z,26.7
2022-09-02T12:22:14.134Z,26.7
2022-09-02T12:24:22.658Z,26.8
2022-09-02T12:26:28.519Z,27
2022-09-02T12:28:34.356Z,27.5
2022-09-02T12:30:40.220Z,26.8
2022-09-02T12:32:46.087Z,26.7
2022-09-02T12:36:57.848Z,26.4
2022-09-02T12:39:09.778Z,27.2
2022-09-02T12:43:18.225Z,27.2
2022-09-02T12:45:38.220Z,26.5
2022-09-02T12:47:43.760Z,26.6
2022-09-02T12:51:58.289Z,26.7
2022-09-02T12:54:04.211Z,26.8
2022-09-02T12:56:10.136Z,26.8
2022-09-02T12:58:16.192Z,26.9
2022-09-02T13:00:21.963Z,26.9
2022-09-02T13:02:30.210Z,26.5
2022-09-02T13:04:33.794Z,26.5
2022-09-02T13:06:42.420Z,27.1
2022-09-02T13:08:48.485Z,27.5
2022-09-02T13:10:54.515Z,27.2
2022-09-02T13:13:00.454Z,28
2022-09-02T13:17:35.468Z,27.9
2022-09-02T13:19:18.391Z,27
2022-09-02T13:21:27.002Z,26.9
2022-09-02T13:23:35.220Z,26.7
2022-09-02T13:25:38.945Z,26.4
2022-09-02T13:29:50.740Z,26.8
2022-09-02T13:36:11.435Z,26.3
2022-09-02T13:38:18.627Z,27
2022-09-02T13:40:23.495Z,28.5
2022-09-02T13:41:27.856Z,28
2022-09-02T13:43:33.813Z,27.7
2022-09-02T13:47:45.802Z,30.3
2022-09-02T13:49:54.433Z,31
2022-09-02T13:52:00.367Z,31.3
2022-09-02T13:54:22.750Z,31.7
2022-09-02T13:56:12.201Z,29.5
2022-09-02T13:58:18.422Z,27.9
2022-09-02T14:00:24.129Z,27.2
2022-09-02T14:02:30.132Z,26.9
2022-09-02T14:04:38.516Z,26.5
2022-09-02T14:06:44.440Z,26.6
2022-09-02T14:08:50.326Z,26.8
2022-09-02T14:15:08.080Z,30.4
2022-09-02T14:21:28.530Z,32.1
2022-09-02T14:31:58.087Z,29.7
2022-09-02T14:34:06.641Z,28.2
2022-09-02T14:36:12.542Z,27.6
2022-09-02T14:38:18.519Z,26.8
2022-09-02T14:39:22.769Z,26.5
2022-09-02T14:41:28.657Z,26.4
2022-09-02T14:45:40.502Z,26.4
2022-09-02T14:47:49.121Z,26.1
2022-09-02T14:49:55.055Z,26
2022-09-02T14:52:00.990Z,26
2022-09-02T14:54:06.960Z,26
2022-09-02T14:56:12.873Z,25.9
2022-09-02T14:58:18.864Z,25.9
2022-09-02T15:04:39.750Z,25.7
2022-09-02T15:06:45.831Z,25.6
2022-09-02T15:08:51.847Z,25.5
2022-09-02T15:10:57.932Z,25.8
2022-09-02T15:13:04.051Z,26.1
2022-09-02T15:15:10.100Z,26
2022-09-02T15:17:19.416Z,25.7
2022-09-02T15:19:25.062Z,25.8
2022-09-02T15:21:31.152Z,25.8
2022-09-02T15:23:40.087Z,26
2022-09-02T15:25:43.344Z,26.5
2022-09-02T15:27:49.439Z,27.5
2022-09-02T15:32:04.657Z,28.4
2022-09-02T15:34:10.520Z,28
2022-09-02T15:37:21.073Z,27
2022-09-02T15:39:27.330Z,26.6
2022-09-02T15:41:33.259Z,26.5
2022-09-02T15:43:39.338Z,26.4
2022-09-02T15:45:48.261Z,26
2022-09-02T15:47:54.302Z,26.1
2022-09-02T15:50:00.393Z,25.9
2022-09-02T15:54:16.425Z,25.8
2022-09-02T15:56:18.675Z,25.8
2022-09-02T16:00:33.665Z,25.2
2022-09-02T16:02:39.868Z,25.2
2022-09-02T16:04:45.886Z,25.2
2022-09-02T16:06:52.044Z,25.2
2022-09-02T16:08:58.110Z,25.2
2022-09-02T16:11:04.251Z,25.2
2022-09-02T16:13:10.365Z,25.1
2022-09-02T16:15:19.258Z,25.2
2022-09-02T16:17:25.329Z,25.2
2022-09-02T16:19:31.536Z,25.2
2022-09-02T16:21:37.586Z,25.3
2022-09-02T16:23:43.704Z,25.4
2022-09-02T16:25:49.859Z,25.5
2022-09-02T16:27:55.948Z,25.5
2022-09-02T16:34:17.107Z,25.4
2022-09-02T16:36:37.028Z,25.2
2022-09-02T16:40:49.281Z,25.2
2022-09-02T16:42:58.173Z,25.3
2022-09-02T16:45:04.313Z,25.3
2022-09-02T16:47:13.821Z,25.2
2022-09-02T16:49:16.551Z,25.2
2022-09-02T16:51:22.689Z,25
2022-09-02T16:53:28.837Z,24.9
2022-09-02T16:55:37.731Z,24.7
2022-09-02T16:57:43.871Z,24.6
2022-09-02T16:59:50.007Z,24.5
2022-09-02T17:01:56.232Z,24.5
2022-09-02T17:04:02.313Z,24.4
2022-09-02T17:06:08.464Z,24.2
2022-09-02T17:08:14.583Z,24.1
2022-09-02T17:10:20.735Z,24
2022-09-02T17:14:35.801Z,23.9
2022-09-02T17:16:42.051Z,23.8
2022-09-02T17:18:48.102Z,23.6
2022-09-02T17:20:54.338Z,23.4
2022-09-02T17:27:17.049Z,23.1
2022-09-02T17:31:29.422Z,22.9
2022-09-02T17:32:33.869Z,22.7
2022-09-02T17:34:40.038Z,22.6
2022-09-02T17:36:46.212Z,22.5
2022-09-02T17:38:52.408Z,22.4
2022-09-02T17:41:01.349Z,22.1
2022-09-02T17:43:07.522Z,22
2022-09-02T17:45:13.731Z,22
2022-09-02T17:47:19.876Z,21.9
2022-09-02T17:49:26.212Z,21.8
2022-09-02T17:51:32.276Z,21.7
2022-09-02T17:53:38.475Z,21.5
2022-09-02T17:55:47.460Z,21.4
2022-09-02T17:57:53.644Z,21.3
2022-09-02T17:59:59.851Z,21.2
2022-09-02T18:02:06.066Z,21.1
2022-09-02T18:04:12.287Z,21
2022-09-02T18:06:18.474Z,20.9
2022-09-02T18:08:24.911Z,20.9
2022-09-02T18:10:33.653Z,20.8
2022-09-02T18:14:46.070Z,20.6
2022-09-02T18:18:58.505Z,20.3
2022-09-02T18:21:04.759Z,20.3
2022-09-02T18:25:19.914Z,20
2022-09-02T18:27:26.160Z,19.9
2022-09-02T18:29:32.382Z,19.8
2022-09-02T18:30:36.947Z,19.7
2022-09-02T18:32:43.134Z,19.7
2022-09-02T18:34:49.391Z,19.6
2022-09-02T18:39:04.571Z,19.5
2022-09-02T18:41:10.792Z,19.5
2022-09-02T18:43:17.036Z,19.4
2022-09-02T18:47:29.517Z,19.3
2022-09-02T18:49:35.771Z,19.5
2022-09-02T18:51:41.983Z,19.3
2022-09-02T18:53:51.005Z,19.1
2022-09-02T18:55:57.247Z,19.1
2022-09-02T18:58:03.487Z,19.2
2022-09-02T19:00:09.730Z,19.3
2022-09-02T19:02:16.113Z,19.2
2022-09-02T19:04:25.162Z,19.1
2022-09-02T19:06:28.440Z,19.1
2022-09-02T19:08:37.436Z,19.2
2022-09-02T19:10:44.015Z,19.2
2022-09-02T19:12:49.923Z,19.1
2022-09-02T19:19:08.676Z,19
2022-09-02T19:23:23.867Z,19.1
2022-09-02T19:25:30.088Z,19.1
2022-09-02T19:27:36.344Z,19.2
2022-09-02T19:28:40.818Z,19.3
2022-09-02T19:30:47.103Z,19.4
2022-09-02T19:32:53.320Z,19.5
2022-09-02T19:34:59.560Z,19.5
2022-09-02T19:37:08.573Z,19.4
2022-09-02T19:39:14.820Z,19.3
2022-09-02T19:41:21.048Z,19.3
2022-09-02T19:43:27.261Z,19
2022-09-02T19:45:33.548Z,18.9
2022-09-02T19:48:06.467Z,18.8
2022-09-02T19:49:46.012Z,18.7
2022-09-02T20:00:20.004Z,18.5
2022-09-02T20:02:26.346Z,18.5
2022-09-02T20:04:32.519Z,18.4
2022-09-02T20:06:41.832Z,18.4
2022-09-02T20:08:47.790Z,18.4
2022-09-02T20:10:54.039Z,18.4
2022-09-02T20:13:00.291Z,18.3
2022-09-02T20:15:06.646Z,18.2
2022-09-02T20:17:12.842Z,18.1
2022-09-02T20:19:19.049Z,18.1
2022-09-02T20:21:28.088Z,18.1
2022-09-02T20:23:34.337Z,18.2
2022-09-02T20:25:40.620Z,18.3
2022-09-02T20:30:10.921Z,18.3
2022-09-02T20:34:26.184Z,18.3
2022-09-02T20:36:33.044Z,18.3
2022-09-02T20:38:38.741Z,18.3
2022-09-02T20:40:45.027Z,18.2
2022-09-02T20:42:51.284Z,18.2
2022-09-02T20:44:57.567Z,18.2
2022-09-02T20:47:03.966Z,18.3
2022-09-02T20:49:12.977Z,18.2
2022-09-02T20:51:19.133Z,18.2
2022-09-02T20:53:25.396Z,18.2
2022-09-02T20:57:37.937Z,18.3
2022-09-02T20:59:44.247Z,18.2
2022-09-02T21:01:50.549Z,18.1
2022-09-02T21:03:59.524Z,18.1
2022-09-02T21:06:05.851Z,18.1
2022-09-02T21:08:12.166Z,18.1
2022-09-02T21:10:18.371Z,18
2022-09-02T21:12:24.598Z,18
2022-09-02T21:14:30.921Z,18
2022-09-02T21:16:37.319Z,17.8
2022-09-02T21:22:58.772Z,17.9
2022-09-02T21:24:03.270Z,17.8
2022-09-02T21:26:09.573Z,17.7
2022-09-02T21:28:15.867Z,17.6
2022-09-02T21:30:22.117Z,17.6
2022-09-02T21:32:31.203Z,17.4
2022-09-02T21:34:37.463Z,17.4
2022-09-02T21:38:50.025Z,17.5
2022-09-02T21:43:02.588Z,17.4
2022-09-02T21:45:08.866Z,17.4
2022-09-02T21:51:30.466Z,17.3
2022-09-02T21:53:36.725Z,17.2
2022-09-02T21:55:43.034Z,17.3
2022-09-02T21:57:49.311Z,17.3
2022-09-02T21:59:55.732Z,17.2
2022-09-02T22:02:04.755Z,17.2
2022-09-02T22:04:10.936Z,17.2
2022-09-02T22:06:17.336Z,17.1
2022-09-02T22:10:29.778Z,17
2022-09-02T22:12:36.071Z,17
2022-09-02T22:14:42.341Z,17
2022-09-02T22:21:04.111Z,17
2022-09-02T22:22:08.586Z,16.8
2022-09-02T22:24:14.872Z,16.7
2022-09-02T22:26:21.145Z,16.7
2022-09-02T22:28:27.427Z,16.7
2022-09-02T22:30:36.480Z,16.5
2022-09-02T22:32:42.764Z,16.5
2022-09-02T22:34:49.056Z,16.5
2022-09-02T22:36:55.462Z,16.5
2022-09-02T22:39:01.986Z,16.4
2022-09-02T22:41:08.124Z,16.3
2022-09-02T22:43:14.417Z,16.2
2022-09-02T22:47:29.950Z,16.2
2022-09-02T22:49:36.336Z,16.1
2022-09-02T22:53:49.035Z,15.9
2022-09-02T22:58:01.728Z,16
2022-09-02T23:00:11.005Z,15.9
2022-09-02T23:02:17.261Z,15.8
2022-09-02T23:04:23.690Z,15.8
2022-09-02T23:06:30.274Z,15.8
2022-09-02T23:08:36.471Z,15.8
2022-09-02T23:10:42.860Z,15.7
2022-09-02T23:12:49.269Z,15.7
2022-09-02T23:14:58.492Z,15.6
2022-09-02T23:19:11.300Z,15.5
2022-09-02T23:22:22.204Z,15.5
2022-09-02T23:24:28.481Z,15.4
2022-09-02T23:28:45.498Z,15.3
2022-09-02T23:30:51.774Z,15.3
2022-09-02T23:32:58.165Z,15.4
2022-09-02T23:35:04.530Z,15.4
2022-09-02T23:37:10.927Z,15.3
2022-09-02T23:39:19.150Z,15.4
2022-09-02T23:41:23.618Z,15.4
2022-09-02T23:45:39.056Z,15.4
2022-09-02T23:51:58.066Z,15.3
2022-09-02T23:54:04.481Z,15.1
2022-09-02T23:56:10.844Z,15.1
2022-09-02T23:58:20.043Z,14.9
